Time;durP1;ratioP1;P1;durP2;ratioP2;P2;SDS_P1;SDS_P2;PMS_P1;PMS_P2;Temp;Humidity;BMP_temperature;BMP_pressure;BME280_temperature;BME280_humidity;BME280_pressure;Samples;Min_cycle;Max_cycle;Signal;HPM_P1;HPM_P2
2023/06/21 00:01:06;;;;;;;12.60;11.40;;;23.30;99.90;;;;;;5046926;28;20493;-87
2023/06/21 00:03:33;;;;;;;13.00;11.80;;;23.20;99.90;;;;;;5044920;28;20486;-88
2023/06/21 00:06:00;;;;;;;13.57;12.50;;;23.10;99.90;;;;;;5044511;28;20555;-88
2023/06/21 00:08:27;;;;;;;13.67;12.57;;;23.10;99.90;;;;;;5048161;28;20465;-89
2023/06/21 00:10:54;;;;;;;14.40;13.20;;;23.20;99.90;;;;;;5044946;28;20471;-87
2023/06/21 00:13:21;;;;;;;15.20;13.80;;;23.00;99.90;;;;;;5045624;28;20493;-90
2023/06/21 00:15:49;;;;;;;15.97;14.47;;;23.00;99.90;;;;;;5047031;28;20551;-92
2023/06/21 00:18:18;;;;;;;14.57;13.30;;;22.80;99.90;;;;;;5046518;28;20465;-87
2023/06/21 00:20:46;;;;;;;13.67;12.57;;;22.60;99.90;;;;;;5047151;28;20461;-88
2023/06/21 00:23:14;;;;;;;13.63;12.43;;;22.50;99.90;;;;;;5050267;28;20469;-88
2023/06/21 00:25:41;;;;;;;14.03;12.93;;;22.40;99.90;;;;;;5047805;28;20491;-88
2023/06/21 00:28:08;;;;;;;13.13;12.07;;;22.30;99.90;;;;;;5049127;28;20587;-88
2023/06/21 00:30:35;;;;;;;14.50;13.17;;;22.20;99.90;;;;;;5052852;28;21196;-88
2023/06/21 00:33:02;;;;;;;14.60;13.33;;;22.30;99.90;;;;;;5048384;28;20465;-88
2023/06/21 00:35:31;;;;;;;13.47;12.37;;;22.20;99.90;;;;;;5045505;28;20538;-88
2023/06/21 00:37:58;;;;;;;13.23;12.13;;;22.10;99.90;;;;;;5048856;28;20452;-88
2023/06/21 00:40:25;;;;;;;15.30;14.00;;;21.90;99.90;;;;;;5049257;28;20554;-89
2023/06/21 00:42:53;;;;;;;14.13;12.20;;;21.80;99.90;;;;;;5047546;28;20457;-88
2023/06/21 00:45:21;;;;;;;14.97;13.57;;;21.90;99.90;;;;;;5051859;28;20468;-87
2023/06/21 00:47:49;;;;;;;13.87;12.67;;;21.90;99.90;;;;;;5048510;28;20472;-88
2023/06/21 00:50:17;;;;;;;13.77;12.47;;;22.00;99.90;;;;;;5048389;28;20472;-89
2023/06/21 00:52:46;;;;;;;15.87;14.43;;;21.90;99.90;;;;;;5048497;28;21178;-90
2023/06/21 00:55:14;;;;;;;15.70;14.20;;;21.80;99.90;;;;;;5045130;28;20849;-88
2023/06/21 00:57:44;;;;;;;15.57;14.23;;;21.70;99.90;;;;;;5047160;28;20466;-91
2023/06/21 01:00:20;;;;;;;16.37;15.07;;;21.80;99.90;;;;;;5048515;28;20983;-90
2023/06/21 01:02:47;;;;;;;15.30;14.00;;;21.90;99.90;;;;;;5038800;28;20591;-92
2023/06/21 01:05:15;;;;;;;17.73;16.00;;;21.90;99.90;;;;;;5046647;28;20508;-91
2023/06/21 01:07:52;;;;;;;21.80;15.27;;;21.80;99.90;;;;;;5041915;28;20847;-89
2023/06/21 01:10:32;;;;;;;16.17;14.67;;;21.60;99.90;;;;;;5043030;28;20469;-92
2023/06/21 01:13:14;;;;;;;13.40;12.10;;;21.60;99.90;;;;;;5044866;28;20468;-89
2023/06/21 01:15:45;;;;;;;13.23;12.10;;;21.80;99.90;;;;;;5044208;28;20493;-90
2023/06/21 01:18:15;;;;;;;13.60;12.30;;;21.90;99.90;;;;;;5043893;28;20503;-92
2023/06/21 01:20:44;;;;;;;12.07;11.07;;;21.90;99.90;;;;;;5047153;28;20496;-89
2023/06/21 01:23:50;;;;;;;16.40;14.90;;;22.00;99.90;;;;;;5042805;28;20446;-88
2023/06/21 01:26:30;;;;;;;16.00;14.50;;;22.10;99.90;;;;;;5051923;28;20465;-88
2023/06/21 01:29:11;;;;;;;17.40;15.70;;;21.60;99.90;;;;;;5046573;28;20536;-91
2023/06/21 01:31:40;;;;;;;14.03;12.73;;;21.60;99.90;;;;;;5043750;28;20488;-89
2023/06/21 01:34:09;;;;;;;14.90;13.57;;;21.50;99.90;;;;;;5046510;28;20465;-87
2023/06/21 01:36:38;;;;;;;15.03;13.73;;;21.60;99.90;;;;;;5043916;28;20488;-88
2023/06/21 01:39:05;;;;;;;15.73;14.33;;;21.60;99.90;;;;;;5055584;28;20519;-87
2023/06/21 01:41:32;;;;;;;16.03;14.27;;;21.50;99.90;;;;;;5046908;28;20795;-89
2023/06/21 01:43:59;;;;;;;18.03;16.13;;;21.40;99.90;;;;;;5048334;28;20511;-87
2023/06/21 01:46:28;;;;;;;15.60;14.20;;;21.30;99.90;;;;;;5046416;28;20948;-88
2023/06/21 01:48:56;;;;;;;16.50;15.20;;;21.10;99.90;;;;;;5050530;28;21008;-87
2023/06/21 01:51:24;;;;;;;17.20;15.47;;;21.20;99.90;;;;;;5049505;28;20465;-88
2023/06/21 01:53:52;;;;;;;16.13;14.83;;;21.10;99.90;;;;;;5050369;28;20867;-88
2023/06/21 01:56:19;;;;;;;15.70;14.27;;;21.30;99.90;;;;;;5048336;28;20504;-89
2023/06/21 01:58:47;;;;;;;15.00;13.53;;;21.40;99.90;;;;;;5044742;28;20542;-87
2023/06/21 02:01:15;;;;;;;16.97;15.47;;;21.30;99.90;;;;;;5049350;28;20558;-87
2023/06/21 02:03:49;;;;;;;16.53;15.10;;;21.40;99.90;;;;;;5042105;28;20469;-89
2023/06/21 02:06:17;;;;;;;15.27;13.87;;;21.40;99.90;;;;;;5049099;28;20866;-90
2023/06/21 02:08:45;;;;;;;15.43;14.03;;;21.20;99.90;;;;;;5044336;28;20516;-89
2023/06/21 02:11:13;;;;;;;16.00;14.43;;;21.20;99.90;;;;;;5048231;28;20487;-88
2023/06/21 02:13:40;;;;;;;14.90;13.60;;;21.30;99.90;;;;;;5046858;28;20469;-89
2023/06/21 02:16:07;;;;;;;14.40;13.10;;;21.30;99.90;;;;;;5050885;28;21199;-89
2023/06/21 02:18:34;;;;;;;16.70;15.13;;;21.40;99.90;;;;;;5046135;28;20507;-91
2023/06/21 02:21:03;;;;;;;16.03;14.73;;;21.40;99.90;;;;;;5050201;28;20556;-89
2023/06/21 02:23:30;;;;;;;16.00;14.70;;;21.30;99.90;;;;;;5051414;28;20469;-92
2023/06/21 02:25:57;;;;;;;18.53;16.80;;;21.30;99.90;;;;;;5044071;28;20464;-88
2023/06/21 02:28:24;;;;;;;19.10;15.40;;;21.30;99.90;;;;;;5051343;28;20477;-89
2023/06/21 02:30:51;;;;;;;15.50;14.20;;;21.30;99.90;;;;;;5050462;28;20465;-90
2023/06/21 02:33:18;;;;;;;15.23;13.80;;;21.20;99.90;;;;;;5053579;28;21017;-89
2023/06/21 02:35:45;;;;;;;17.03;15.30;;;21.10;99.90;;;;;;5050917;28;20503;-89
2023/06/21 02:38:13;;;;;;;15.20;13.80;;;21.10;99.90;;;;;;5042909;28;20473;-88
2023/06/21 02:40:40;;;;;;;23.50;15.37;;;20.90;99.90;;;;;;5048787;28;21014;-91
2023/06/21 02:43:07;;;;;;;15.67;14.23;;;20.80;99.90;;;;;;5047929;28;20469;-88
2023/06/21 02:45:35;;;;;;;16.03;14.57;;;20.80;99.90;;;;;;5051571;28;20541;-90
2023/06/21 02:48:04;;;;;;;16.93;15.43;;;20.80;99.90;;;;;;5040904;28;20477;-91
2023/06/21 02:50:31;;;;;;;15.77;14.43;;;20.70;99.90;;;;;;5046409;28;20472;-93
2023/06/21 02:52:58;;;;;;;18.00;16.50;;;20.70;99.90;;;;;;5047952;28;20461;-90
2023/06/21 02:55:26;;;;;;;17.93;16.20;;;20.70;99.90;;;;;;5056055;28;20513;-90
2023/06/21 02:57:54;;;;;;;16.50;15.00;;;20.70;99.90;;;;;;5045599;28;20473;-88
2023/06/21 03:00:26;;;;;;;17.57;15.90;;;20.60;99.90;;;;;;5043640;28;20873;-90
2023/06/21 03:02:53;;;;;;;19.80;17.97;;;20.60;99.90;;;;;;5046962;28;20516;-88
2023/06/21 03:05:20;;;;;;;17.13;15.47;;;20.60;99.90;;;;;;5045419;28;20480;-88
2023/06/21 03:07:47;;;;;;;16.57;15.17;;;20.70;99.90;;;;;;5046326;28;20453;-89
2023/06/21 03:10:15;;;;;;;18.13;16.43;;;20.80;99.90;;;;;;5047832;28;20453;-91
2023/06/21 03:12:44;;;;;;;15.97;14.57;;;20.70;99.90;;;;;;5045878;28;20526;-89
2023/06/21 03:15:12;;;;;;;17.57;15.97;;;20.80;99.90;;;;;;5047292;28;20491;-89
2023/06/21 03:17:39;;;;;;;17.60;16.00;;;20.80;99.90;;;;;;5047057;28;21044;-91
2023/06/21 03:20:12;;;;;;;18.60;16.93;;;20.70;99.90;;;;;;5046677;28;20831;-88
2023/06/21 03:22:39;;;;;;;18.33;16.43;;;20.70;99.90;;;;;;5038591;28;21026;-88
2023/06/21 03:25:07;;;;;;;20.27;16.43;;;20.50;99.90;;;;;;5052383;28;20449;-88
2023/06/21 03:27:34;;;;;;;17.40;15.77;;;20.50;99.90;;;;;;5047861;28;20461;-91
2023/06/21 03:30:02;;;;;;;19.17;17.20;;;20.40;99.90;;;;;;5047500;28;20445;-92
2023/06/21 03:32:29;;;;;;;18.93;17.10;;;20.30;99.90;;;;;;5047325;28;20554;-88
2023/06/21 03:34:59;;;;;;;19.87;17.97;;;20.30;99.90;;;;;;5047723;28;20446;-89
2023/06/21 03:37:26;;;;;;;16.40;14.87;;;20.40;99.90;;;;;;5046372;28;20480;-92
2023/06/21 03:39:52;;;;;;;18.77;16.90;;;20.30;99.90;;;;;;5047467;28;20526;-88
2023/06/21 03:42:20;;;;;;;17.87;16.20;;;20.40;99.90;;;;;;5044600;28;20648;-89
2023/06/21 03:44:47;;;;;;;18.50;15.50;;;20.30;99.90;;;;;;5047714;28;20453;-87
2023/06/21 03:47:15;;;;;;;16.17;14.83;;;20.30;99.90;;;;;;5039025;28;20461;-89
2023/06/21 03:49:42;;;;;;;16.40;14.80;;;20.40;99.90;;;;;;5040984;28;20514;-92
2023/06/21 03:52:09;;;;;;;15.60;14.30;;;20.40;99.90;;;;;;5039934;28;20470;-89
2023/06/21 03:54:36;;;;;;;18.30;16.40;;;20.40;99.90;;;;;;5044359;28;20477;-92
2023/06/21 03:57:03;;;;;;;15.70;14.27;;;20.40;99.90;;;;;;5049050;28;20492;-88
2023/06/21 03:59:31;;;;;;;17.50;15.20;;;20.50;99.90;;;;;;5051656;28;20489;-88
2023/06/21 04:01:58;;;;;;;18.30;16.57;;;20.50;99.90;;;;;;5048401;28;20461;-89
2023/06/21 04:04:26;;;;;;;16.83;15.43;;;20.70;99.90;;;;;;5070049;28;20441;-88
2023/06/21 04:06:53;;;;;;;15.40;14.10;;;20.70;99.90;;;;;;5070965;28;20484;-87
2023/06/21 04:09:20;;;;;;;16.50;15.00;;;20.70;99.90;;;;;;5077091;28;20473;-89
2023/06/21 04:11:47;;;;;;;16.20;14.40;;;20.70;99.90;;;;;;5062724;28;20915;-88
2023/06/21 04:14:15;;;;;;;15.27;13.93;;;20.70;99.90;;;;;;5049098;28;20473;-89
2023/06/21 04:16:43;;;;;;;16.67;15.17;;;20.80;99.90;;;;;;5051503;28;20495;-89
2023/06/21 04:19:10;;;;;;;18.10;15.23;;;20.90;99.90;;;;;;5044201;28;20473;-90
2023/06/21 04:21:40;;;;;;;17.30;15.77;;;20.90;99.90;;;;;;5045436;28;20491;-91
2023/06/21 04:24:07;;;;;;;17.53;16.03;;;20.90;99.90;;;;;;5046613;28;20465;-88
2023/06/21 04:26:34;;;;;;;16.20;14.77;;;20.80;99.90;;;;;;5045872;28;20514;-89
2023/06/21 04:29:01;;;;;;;15.20;13.70;;;20.80;99.90;;;;;;5046552;28;20476;-89
2023/06/21 04:31:28;;;;;;;13.73;12.57;;;21.00;99.90;;;;;;5047210;28;21021;-88
2023/06/21 04:33:55;;;;;;;15.10;13.80;;;21.00;99.90;;;;;;5043833;28;20476;-89
2023/06/21 04:36:24;;;;;;;13.60;12.60;;;21.10;99.90;;;;;;5049227;28;20863;-90
2023/06/21 04:38:53;;;;;;;15.37;14.20;;;21.20;99.90;;;;;;5042296;28;20457;-89
2023/06/21 04:41:21;;;;;;;14.00;12.50;;;21.30;99.90;;;;;;5048156;28;20497;-89
2023/06/21 04:43:48;;;;;;;14.33;13.03;;;21.40;99.90;;;;;;5050224;28;20445;-87
2023/06/21 04:46:18;;;;;;;16.07;14.33;;;21.50;99.90;;;;;;5053002;28;20465;-88
2023/06/21 04:48:46;;;;;;;15.50;14.20;;;21.50;99.90;;;;;;5045040;28;20947;-87
2023/06/21 04:51:15;;;;;;;15.10;13.80;;;21.70;99.90;;;;;;5045774;28;20948;-88
2023/06/21 04:53:42;;;;;;;14.67;13.27;;;21.90;99.90;;;;;;5049443;28;20916;-87
2023/06/21 04:56:12;;;;;;;15.33;13.97;;;22.00;99.90;;;;;;5051114;28;20460;-88
2023/06/21 04:58:40;;;;;;;14.07;12.83;;;22.10;99.90;;;;;;5050662;28;20460;-87
2023/06/21 05:01:07;;;;;;;14.17;12.73;;;22.20;99.90;;;;;;5048787;28;20466;-88
2023/06/21 05:03:34;;;;;;;13.70;12.60;;;22.40;99.90;;;;;;5047672;28;21040;-89
2023/06/21 05:06:01;;;;;;;13.70;12.40;;;22.40;99.90;;;;;;5046649;28;20456;-90
2023/06/21 05:08:28;;;;;;;15.70;14.10;;;22.40;99.90;;;;;;5048923;28;20955;-88
2023/06/21 05:10:56;;;;;;;18.50;13.43;;;22.50;99.90;;;;;;5044560;28;20510;-88
2023/06/21 05:13:24;;;;;;;14.40;13.10;;;22.60;99.90;;;;;;5044709;28;20484;-89
2023/06/21 05:15:51;;;;;;;12.83;11.57;;;22.60;99.90;;;;;;5047560;28;20535;-87
2023/06/21 05:18:18;;;;;;;14.37;13.17;;;22.60;99.90;;;;;;5046050;28;20504;-87
2023/06/21 05:20:45;;;;;;;14.87;13.47;;;22.60;99.90;;;;;;5048314;28;20491;-86
2023/06/21 05:23:12;;;;;;;13.73;12.53;;;22.80;99.90;;;;;;5045009;28;20446;-88
2023/06/21 05:25:39;;;;;;;15.30;14.00;;;22.80;99.90;;;;;;5049863;28;20508;-87
2023/06/21 05:28:05;;;;;;;12.67;11.60;;;22.80;99.90;;;;;;5042301;28;20667;-88
2023/06/21 05:30:34;;;;;;;14.50;12.80;;;22.80;99.90;;;;;;5067917;28;20454;-89
2023/06/21 05:33:01;;;;;;;15.77;12.60;;;22.80;99.90;;;;;;5065313;28;20484;-88
2023/06/21 05:35:28;;;;;;;15.63;13.90;;;22.60;99.90;;;;;;5056800;28;20453;-86
2023/06/21 05:37:55;;;;;;;13.93;12.60;;;22.60;99.90;;;;;;5054008;28;21080;-88
2023/06/21 05:40:22;;;;;;;14.20;12.90;;;22.60;99.90;;;;;;5052925;28;20543;-88
2023/06/21 05:42:49;;;;;;;15.80;14.20;;;22.50;99.90;;;;;;5050326;28;20468;-86
2023/06/21 05:45:17;;;;;;;14.33;13.00;;;22.50;99.90;;;;;;5047648;28;20468;-88
2023/06/21 05:47:45;;;;;;;15.20;13.80;;;22.60;99.90;;;;;;5044974;28;20467;-88
2023/06/21 05:50:12;;;;;;;16.20;13.70;;;22.70;99.90;;;;;;5043374;28;20481;-88
2023/06/21 05:52:39;;;;;;;15.13;13.37;;;22.60;99.90;;;;;;5045106;28;20493;-87
2023/06/21 05:55:07;;;;;;;14.87;13.40;;;22.70;99.90;;;;;;5051560;28;20514;-88
2023/06/21 05:57:34;;;;;;;14.10;12.70;;;22.80;99.90;;;;;;5043205;28;20492;-87
2023/06/21 06:00:01;;;;;;;12.10;11.00;;;22.90;99.90;;;;;;5047129;28;20493;-88
2023/06/21 06:02:28;;;;;;;19.67;13.80;;;22.90;99.90;;;;;;5047748;28;20511;-88
2023/06/21 06:04:56;;;;;;;14.13;12.50;;;22.90;99.90;;;;;;5049248;28;20514;-86
2023/06/21 06:07:24;;;;;;;12.90;11.70;;;23.00;99.90;;;;;;5042975;28;20515;-87
2023/06/21 06:09:51;;;;;;;12.30;11.00;;;23.10;99.90;;;;;;5047026;28;20986;-87
2023/06/21 06:12:21;;;;;;;12.20;11.00;;;23.10;99.90;;;;;;5044264;28;21001;-86
2023/06/21 06:14:48;;;;;;;15.00;9.53;;;23.20;99.90;;;;;;5048429;28;20477;-87
2023/06/21 06:17:16;;;;;;;10.93;8.50;;;23.30;99.90;;;;;;5047185;28;20492;-87
2023/06/21 06:19:43;;;;;;;10.13;9.10;;;23.30;99.90;;;;;;5049728;28;20506;-88
2023/06/21 06:22:11;;;;;;;15.07;8.83;;;23.40;99.90;;;;;;5049353;28;20449;-87
2023/06/21 06:24:38;;;;;;;9.40;7.33;;;23.40;99.90;;;;;;5050224;28;20466;-86
2023/06/21 06:27:06;;;;;;;10.97;8.90;;;23.40;99.90;;;;;;5048575;28;20832;-87
2023/06/21 06:29:33;;;;;;;10.50;8.30;;;23.50;99.90;;;;;;5049233;28;20456;-87
2023/06/21 06:32:00;;;;;;;9.30;8.53;;;23.60;99.90;;;;;;5046541;28;20805;-86
2023/06/21 06:34:27;;;;;;;9.27;8.50;;;23.80;99.90;;;;;;5049402;28;20533;-87
2023/06/21 06:36:54;;;;;;;9.67;8.03;;;23.70;99.90;;;;;;5049542;28;20481;-88
2023/06/21 06:39:22;;;;;;;10.87;6.87;;;23.70;99.90;;;;;;5049165;28;20976;-86
2023/06/21 06:41:49;;;;;;;7.67;5.60;;;23.60;99.90;;;;;;5043735;28;20511;-87
2023/06/21 06:44:16;;;;;;;10.53;6.97;;;23.60;99.90;;;;;;5044541;28;21093;-89
2023/06/21 06:46:43;;;;;;;10.13;7.10;;;23.60;99.90;;;;;;5042232;28;20458;-87
2023/06/21 06:49:10;;;;;;;10.17;7.50;;;23.60;99.90;;;;;;5044498;28;21039;-87
2023/06/21 06:51:37;;;;;;;8.30;6.87;;;23.70;99.90;;;;;;5050979;28;20471;-87
2023/06/21 06:54:04;;;;;;;7.43;6.73;;;23.70;99.90;;;;;;5056456;28;20465;-87
2023/06/21 06:56:32;;;;;;;7.37;6.73;;;23.90;99.90;;;;;;5069577;28;20430;-87
2023/06/21 06:58:59;;;;;;;8.60;7.70;;;24.10;99.90;;;;;;5074900;28;20487;-87
2023/06/21 07:01:27;;;;;;;7.20;6.50;;;24.20;99.90;;;;;;5061595;28;20926;-88
2023/06/21 07:03:54;;;;;;;10.63;7.60;;;24.10;99.90;;;;;;5049986;28;20953;-87
2023/06/21 07:06:22;;;;;;;7.97;7.23;;;24.40;99.90;;;;;;5047846;28;21063;-87
2023/06/21 07:08:49;;;;;;;6.03;5.47;;;24.70;99.90;;;;;;5044961;28;20448;-88
2023/06/21 07:11:16;;;;;;;8.83;7.07;;;24.70;99.90;;;;;;5046521;28;20467;-88
2023/06/21 07:13:44;;;;;;;8.93;6.60;;;24.70;99.90;;;;;;5045358;28;20443;-87
2023/06/21 07:16:11;;;;;;;7.20;6.03;;;25.10;99.90;;;;;;5043295;28;20456;-87
2023/06/21 07:18:38;;;;;;;6.73;6.13;;;25.40;99.90;;;;;;5043919;28;20496;-87
2023/06/21 07:21:05;;;;;;;7.37;6.63;;;25.90;99.90;;;;;;5044622;28;20472;-88
2023/06/21 07:23:32;;;;;;;6.73;5.97;;;26.20;99.90;;;;;;5040239;28;20839;-88
2023/06/21 07:25:59;;;;;;;10.33;6.93;;;26.70;99.90;;;;;;5039994;28;20461;-88
2023/06/21 07:28:26;;;;;;;8.80;7.10;;;26.90;99.00;;;;;;5043059;28;20522;-87
2023/06/21 07:30:55;;;;;;;9.17;8.00;;;26.90;98.00;;;;;;5041444;28;20989;-89
2023/06/21 07:33:22;;;;;;;8.00;7.20;;;26.80;97.70;;;;;;5041124;28;20960;-87
2023/06/21 07:35:49;;;;;;;10.67;9.63;;;26.60;97.40;;;;;;5041330;28;20533;-86
2023/06/21 07:38:16;;;;;;;13.07;7.73;;;26.70;97.40;;;;;;5042139;28;20521;-88
2023/06/21 07:40:43;;;;;;;7.77;7.07;;;27.10;98.20;;;;;;5036453;28;20565;-86
2023/06/21 07:43:10;;;;;;;14.93;6.83;;;27.50;96.90;;;;;;5042251;28;20576;-87
2023/06/21 07:45:37;;;;;;;7.80;7.10;;;27.80;95.60;;;;;;5039237;28;20449;-87
2023/06/21 07:48:05;;;;;;;7.43;6.73;;;27.60;95.40;;;;;;5037284;28;20481;-87
2023/06/21 07:50:32;;;;;;;13.13;7.73;;;27.60;95.90;;;;;;5038792;28;20496;-87
2023/06/21 07:52:59;;;;;;;7.47;6.97;;;27.90;94.90;;;;;;5041873;28;20541;-87
2023/06/21 07:55:26;;;;;;;8.53;7.43;;;28.20;93.30;;;;;;5045220;28;20486;-88
2023/06/21 07:57:53;;;;;;;8.27;6.77;;;28.00;93.90;;;;;;5042289;28;20493;-88
2023/06/21 08:00:20;;;;;;;9.60;6.43;;;28.20;92.50;;;;;;5046447;28;20510;-87
2023/06/21 08:02:49;;;;;;;12.03;7.37;;;28.50;92.60;;;;;;5045097;28;20466;-87
2023/06/21 08:05:18;;;;;;;17.07;9.60;;;28.80;91.10;;;;;;5046943;28;20952;-86
2023/06/21 08:07:45;;;;;;;7.43;6.83;;;28.70;91.70;;;;;;5045876;28;20461;-87
2023/06/21 08:10:13;;;;;;;8.23;7.37;;;28.90;91.70;;;;;;5045376;28;20445;-88
2023/06/21 08:12:40;;;;;;;9.97;7.47;;;29.00;91.70;;;;;;5046872;28;20457;-86
2023/06/21 08:15:08;;;;;;;8.83;6.60;;;29.40;90.80;;;;;;5045393;28;20464;-87
2023/06/21 08:17:35;;;;;;;10.13;8.53;;;29.20;90.10;;;;;;5048700;28;20530;-87
2023/06/21 08:20:03;;;;;;;8.30;7.50;;;29.20;88.20;;;;;;5064228;28;20522;-88
2023/06/21 08:22:32;;;;;;;7.50;6.73;;;28.90;91.60;;;;;;5069033;28;20459;-85
2023/06/21 08:24:59;;;;;;;7.97;7.00;;;28.80;89.20;;;;;;5058398;28;20455;-87
2023/06/21 08:27:26;;;;;;;7.70;7.10;;;28.50;86.60;;;;;;5048966;28;20452;-86
2023/06/21 08:29:53;;;;;;;8.73;8.03;;;28.50;90.50;;;;;;5047175;28;20478;-86
2023/06/21 08:32:20;;;;;;;9.40;6.97;;;28.80;89.00;;;;;;5044703;28;20533;-88
2023/06/21 08:34:47;;;;;;;8.13;7.43;;;28.90;85.50;;;;;;5045588;28;20463;-86
2023/06/21 08:37:14;;;;;;;7.70;6.90;;;28.90;88.60;;;;;;5046455;28;20530;-86
2023/06/21 08:39:43;;;;;;;9.13;7.17;;;29.00;87.00;;;;;;5043106;28;20474;-86
2023/06/21 08:42:10;;;;;;;12.27;7.83;;;29.30;85.90;;;;;;5047848;28;20458;-86
2023/06/21 08:44:37;;;;;;;8.47;7.17;;;29.30;85.20;;;;;;5043825;28;20451;-86
2023/06/21 08:47:07;;;;;;;8.53;7.83;;;29.30;84.60;;;;;;5050518;28;20493;-88
2023/06/21 08:49:40;;;;;;;10.27;7.67;;;29.20;87.30;;;;;;5044000;28;20502;-86
2023/06/21 08:52:10;;;;;;;7.60;7.00;;;29.60;82.20;;;;;;5049952;28;21043;-88
2023/06/21 08:54:40;;;;;;;8.00;7.20;;;29.10;82.00;;;;;;5049938;28;20534;-86
2023/06/21 08:57:21;;;;;;;10.20;8.63;;;29.30;86.10;;;;;;5049018;28;20513;-89
2023/06/21 08:59:51;;;;;;;8.77;7.90;;;29.70;84.50;;;;;;5047269;28;20487;-84
2023/06/21 09:02:28;;;;;;;9.03;8.07;;;30.10;83.10;;;;;;5046251;28;20468;-86
2023/06/21 09:04:57;;;;;;;10.20;7.60;;;29.90;77.50;;;;;;5049086;28;21066;-87
2023/06/21 09:07:24;;;;;;;9.07;7.90;;;30.00;80.80;;;;;;5049660;28;20451;-87
2023/06/21 09:09:54;;;;;;;9.17;7.93;;;29.80;83.40;;;;;;5049531;28;20844;-87
2023/06/21 09:12:24;;;;;;;7.57;6.50;;;29.50;77.10;;;;;;5049047;28;20540;-87
2023/06/21 09:14:52;;;;;;;12.50;7.87;;;29.10;81.30;;;;;;5048851;28;20457;-86
2023/06/21 09:17:20;;;;;;;7.67;7.07;;;29.30;86.20;;;;;;5048333;28;21027;-86
2023/06/21 09:19:47;;;;;;;7.03;6.50;;;29.60;81.30;;;;;;5049163;28;21245;-89
2023/06/21 09:22:14;;;;;;;9.13;7.67;;;30.20;80.70;;;;;;5048668;28;20449;-88
2023/06/21 09:24:41;;;;;;;8.00;7.20;;;30.70;80.40;;;;;;5047639;28;20446;-88
2023/06/21 09:27:09;;;;;;;8.73;8.03;;;30.30;76.40;;;;;;5048940;28;20464;-88
2023/06/21 09:29:38;;;;;;;8.40;6.17;;;30.60;72.70;;;;;;5049149;28;20464;-88
2023/06/21 09:32:05;;;;;;;9.10;6.97;;;30.50;70.70;;;;;;5048938;28;20496;-88
2023/06/21 09:34:32;;;;;;;7.73;6.93;;;31.00;82.10;;;;;;5050180;28;20457;-89
2023/06/21 09:36:59;;;;;;;7.33;6.70;;;31.40;74.80;;;;;;5051912;28;20875;-88
2023/06/21 09:39:28;;;;;;;9.00;7.33;;;31.30;70.60;;;;;;5052597;28;20491;-84
2023/06/21 09:41:56;;;;;;;7.00;5.90;;;31.20;72.90;;;;;;5063990;28;20453;-85
2023/06/21 09:44:24;;;;;;;8.47;6.47;;;31.50;70.00;;;;;;5069493;28;20446;-83
2023/06/21 09:46:57;;;;;;;10.30;6.70;;;31.70;69.60;;;;;;5064490;28;20469;-83
2023/06/21 09:49:27;;;;;;;9.97;6.17;;;31.60;67.80;;;;;;5057788;28;20468;-83
2023/06/21 09:51:54;;;;;;;8.50;6.73;;;31.60;64.00;;;;;;5047324;28;20484;-85
2023/06/21 09:54:21;;;;;;;6.73;6.23;;;31.90;63.10;;;;;;5049541;28;20452;-83
2023/06/21 09:56:48;;;;;;;7.60;6.90;;;31.80;61.90;;;;;;5048825;28;20493;-88
2023/06/21 09:59:16;;;;;;;7.27;6.67;;;31.80;64.50;;;;;;5047141;28;20501;-84
2023/06/21 10:01:45;;;;;;;7.63;5.50;;;31.80;62.90;;;;;;5049346;28;20445;-83
2023/06/21 10:04:15;;;;;;;7.53;5.70;;;31.80;58.10;;;;;;5046949;28;21089;-85
2023/06/21 10:06:50;;;;;;;6.07;5.30;;;32.00;59.70;;;;;;5045822;28;20591;-84
2023/06/21 10:09:17;;;;;;;6.30;5.70;;;32.10;59.40;;;;;;5044990;28;20912;-86
2023/06/21 10:11:45;;;;;;;6.00;5.40;;;32.50;54.10;;;;;;5044207;28;20570;-84
2023/06/21 10:14:21;;;;;;;9.57;8.53;;;32.60;53.60;;;;;;5046850;28;20453;-83
2023/06/21 10:16:51;;;;;;;7.53;5.47;;;32.30;48.50;;;;;;5047571;28;20449;-83
2023/06/21 10:19:22;;;;;;;6.47;5.70;;;31.80;50.30;;;;;;5044495;28;20677;-83
2023/06/21 10:21:52;;;;;;;8.00;6.50;;;32.40;51.70;;;;;;5045593;28;20447;-84
2023/06/21 10:24:22;;;;;;;5.53;5.03;;;32.70;52.50;;;;;;5046173;28;20921;-88
2023/06/21 10:26:50;;;;;;;6.37;5.77;;;33.10;54.70;;;;;;5046455;28;20453;-84
2023/06/21 10:29:19;;;;;;;6.50;5.90;;;33.40;49.60;;;;;;5046870;28;20844;-84
2023/06/21 10:31:49;;;;;;;7.00;6.03;;;33.40;50.70;;;;;;5048097;28;20445;-84
2023/06/21 10:34:22;;;;;;;6.73;5.27;;;32.60;50.40;;;;;;5043621;28;20515;-84
2023/06/21 10:36:54;;;;;;;5.93;5.40;;;32.40;48.30;;;;;;5046935;28;20445;-85
2023/06/21 10:39:24;;;;;;;6.37;5.80;;;32.60;47.20;;;;;;5047598;28;20521;-87
2023/06/21 10:41:51;;;;;;;8.20;6.27;;;32.80;51.90;;;;;;5046512;28;20473;-83
2023/06/21 10:44:19;;;;;;;9.47;6.10;;;33.20;47.20;;;;;;5045166;28;20484;-84
2023/06/21 10:46:47;;;;;;;7.17;5.50;;;32.80;43.50;;;;;;5047192;28;20553;-85
2023/06/21 10:49:17;;;;;;;6.97;5.43;;;32.60;46.50;;;;;;5045747;28;20497;-84
2023/06/21 10:51:47;;;;;;;5.83;5.27;;;32.60;47.90;;;;;;5046634;28;20461;-85
2023/06/21 10:54:15;;;;;;;5.73;5.17;;;32.90;46.20;;;;;;5046505;28;20453;-84
2023/06/21 10:56:43;;;;;;;7.03;5.60;;;32.80;44.30;;;;;;5046057;28;20499;-83
2023/06/21 10:59:11;;;;;;;4.67;4.23;;;32.90;42.30;;;;;;5045120;28;20597;-84
2023/06/21 11:01:38;;;;;;;5.67;5.13;;;32.70;43.30;;;;;;5043066;28;20441;-85
2023/06/21 11:04:05;;;;;;;6.87;5.70;;;32.70;43.40;;;;;;5043275;28;20486;-84
2023/06/21 11:06:37;;;;;;;7.10;5.00;;;32.80;45.80;;;;;;5066606;28;20437;-84
2023/06/21 11:09:10;;;;;;;6.30;4.90;;;32.90;44.50;;;;;;5054958;28;20473;-83
2023/06/21 11:11:40;;;;;;;11.03;5.73;;;32.90;43.60;;;;;;5039751;28;20460;-85
2023/06/21 11:14:07;;;;;;;8.57;5.40;;;33.20;43.80;;;;;;5041233;28;20458;-84
2023/06/21 11:16:36;;;;;;;7.57;5.13;;;33.10;40.70;;;;;;5036749;28;20542;-86
2023/06/21 11:19:06;;;;;;;5.00;4.53;;;32.90;42.70;;;;;;5045023;28;20585;-84
2023/06/21 11:21:40;;;;;;;6.70;4.57;;;33.30;41.80;;;;;;5041840;28;20473;-84
2023/06/21 11:24:10;;;;;;;8.30;4.80;;;33.50;44.30;;;;;;5040869;28;20516;-84
2023/06/21 11:26:54;;;;;;;7.57;3.70;;;33.10;42.10;;;;;;5038587;28;20959;-83
2023/06/21 11:29:21;;;;;;;5.00;2.70;;;33.10;37.70;;;;;;5038981;28;20461;-84
2023/06/21 11:31:48;;;;;;;4.30;3.47;;;33.10;36.10;;;;;;5043385;28;20465;-84
2023/06/21 11:34:26;;;;;;;5.97;5.37;;;32.80;34.90;;;;;;5043759;28;20497;-86
2023/06/21 11:36:53;;;;;;;7.60;3.60;;;32.80;39.00;;;;;;5037242;28;20438;-87
2023/06/21 11:39:28;;;;;;;9.10;3.23;;;32.40;38.00;;;;;;5040221;28;20493;-85
2023/06/21 11:41:59;;;;;;;4.87;3.43;;;32.70;39.50;;;;;;5036522;28;20445;-83
2023/06/21 11:44:30;;;;;;;4.83;3.80;;;32.80;38.60;;;;;;5045272;28;20535;-85
2023/06/21 11:47:18;;;;;;;5.30;3.90;;;32.70;36.80;;;;;;5033928;28;20458;-84
2023/06/21 11:49:52;;;;;;;7.53;4.90;;;32.80;37.50;;;;;;5044359;28;21217;-83
2023/06/21 11:52:32;;;;;;;4.77;2.97;;;32.50;35.60;;;;;;5036463;28;20523;-83
2023/06/21 11:55:14;;;;;;;5.53;4.10;;;33.10;33.90;;;;;;5041281;28;21045;-84
2023/06/21 11:57:45;;;;;;;7.00;2.87;;;33.60;37.90;;;;;;5042676;28;20464;-84
2023/06/21 12:00:13;;;;;;;4.10;2.87;;;33.70;36.30;;;;;;5046783;28;20554;-84
2023/06/21 12:02:40;;;;;;;5.53;3.73;;;33.70;35.20;;;;;;5044711;28;20453;-84
2023/06/21 12:05:08;;;;;;;5.43;3.53;;;34.00;33.60;;;;;;5045977;28;20457;-86
2023/06/21 12:07:35;;;;;;;4.00;2.90;;;33.50;37.20;;;;;;5046938;28;20452;-85
2023/06/21 12:10:04;;;;;;;3.50;3.20;;;32.90;36.20;;;;;;5043883;28;20461;-85
2023/06/21 12:12:31;;;;;;;6.13;3.83;;;33.00;36.30;;;;;;5042637;28;20452;-89
2023/06/21 12:14:59;;;;;;;6.77;3.60;;;33.10;38.50;;;;;;5043017;28;20571;-87
2023/06/21 12:17:26;;;;;;;4.93;3.70;;;33.20;37.00;;;;;;5048073;28;20465;-87
2023/06/21 12:19:53;;;;;;;7.67;4.37;;;33.30;34.70;;;;;;5045114;28;20996;-85
2023/06/21 12:22:22;;;;;;;8.10;5.17;;;33.10;37.70;;;;;;5046465;28;20555;-88
2023/06/21 12:24:52;;;;;;;10.30;4.50;;;33.30;39.80;;;;;;5047286;28;20513;-85
2023/06/21 12:27:20;;;;;;;6.07;3.87;;;33.60;36.40;;;;;;5054091;28;20467;-85
2023/06/21 12:29:49;;;;;;;15.33;5.23;;;33.20;33.40;;;;;;5066939;28;20442;-84
2023/06/21 12:32:16;;;;;;;8.13;2.87;;;33.30;33.30;;;;;;5054152;28;20466;-83
2023/06/21 12:34:42;;;;;;;5.47;3.30;;;33.60;32.20;;;;;;5057447;28;20453;-88
2023/06/21 12:37:16;;;;;;;4.83;2.43;;;33.80;29.70;;;;;;5044165;28;20512;-84
2023/06/21 12:39:50;;;;;;;4.23;3.17;;;33.60;30.30;;;;;;5048300;28;20509;-84
2023/06/21 12:42:21;;;;;;;5.90;3.30;;;34.10;33.90;;;;;;5051833;28;20491;-88